Time;durP1;ratioP1;P1;durP2;ratioP2;P2;SDS_P1;SDS_P2;PMS_P1;PMS_P2;Temp;Humidity;BMP_temperature;BMP_pressure;BME280_temperature;BME280_humidity;BME280_pressure;Samples;Min_cycle;Max_cycle;Signal;HPM_P1;HPM_P2
2023/01/30 00:01:17;;;;;;;13.83;12.53;;;1.40;69.30;;;;;;6237502;28;20239;-80
2023/01/30 00:04:22;;;;;;;13.93;12.43;;;1.40;69.00;;;;;;6255660;28;20249;-82
2023/01/30 00:07:25;;;;;;;13.30;12.00;;;1.40;69.20;;;;;;6265581;28;20717;-80
2023/01/30 00:10:28;;;;;;;14.17;12.70;;;1.40;69.20;;;;;;6261468;28;20248;-78
2023/01/30 00:13:32;;;;;;;14.53;13.13;;;1.40;69.10;;;;;;6263316;28;20237;-79
2023/01/30 00:16:35;;;;;;;13.60;12.10;;;1.40;69.00;;;;;;6262143;28;20234;-79
2023/01/30 00:19:40;;;;;;;14.23;12.93;;;1.50;68.70;;;;;;6260795;28;20740;-78
2023/01/30 00:22:43;;;;;;;15.03;13.00;;;1.50;68.70;;;;;;6260101;28;20238;-78
2023/01/30 00:26:03;;;;;;;13.07;11.73;;;1.50;68.70;;;;;;6261006;28;20242;-78
2023/01/30 00:29:06;;;;;;;15.70;13.97;;;1.50;68.80;;;;;;6261539;28;20238;-80
2023/01/30 00:32:09;;;;;;;14.73;13.33;;;1.50;68.90;;;;;;6259632;28;20238;-77
2023/01/30 00:35:14;;;;;;;15.30;13.70;;;1.50;68.70;;;;;;6259460;28;20242;-79
2023/01/30 00:38:18;;;;;;;14.87;13.37;;;1.50;68.80;;;;;;6263567;28;20460;-79
2023/01/30 00:41:21;;;;;;;15.40;13.80;;;1.50;68.70;;;;;;6237805;28;20246;-79
2023/01/30 00:47:45;;;;;;;19.23;14.27;;;1.50;68.50;;;;;;6237231;28;20238;-80
2023/01/30 00:50:50;;;;;;;15.97;13.73;;;1.50;68.70;;;;;;6261769;28;20234;-78
2023/01/30 00:53:53;;;;;;;17.70;14.83;;;1.40;68.70;;;;;;6262481;28;20245;-80
2023/01/30 00:56:56;;;;;;;18.47;14.27;;;1.40;68.90;;;;;;6254598;28;20242;-78
2023/01/30 00:59:59;;;;;;;15.70;14.17;;;1.40;69.10;;;;;;6238290;28;20613;-78
2023/01/30 01:03:02;;;;;;;18.70;14.90;;;1.40;69.00;;;;;;6260098;28;20245;-79
2023/01/30 01:06:08;;;;;;;17.17;15.37;;;1.40;69.10;;;;;;6271044;28;20621;-80
2023/01/30 01:09:11;;;;;;;18.47;15.50;;;1.40;68.80;;;;;;6291145;28;20237;-77
2023/01/30 01:12:14;;;;;;;17.03;14.37;;;1.40;68.80;;;;;;6303395;28;20213;-79
2023/01/30 01:15:18;;;;;;;16.50;14.80;;;1.40;68.90;;;;;;6279265;28;20299;-77
2023/01/30 01:18:22;;;;;;;16.67;14.93;;;1.40;69.00;;;;;;6273132;28;20222;-78
2023/01/30 01:21:26;;;;;;;16.60;14.63;;;1.40;68.90;;;;;;6289311;28;20270;-80
2023/01/30 01:24:31;;;;;;;17.57;15.70;;;1.30;69.00;;;;;;6234685;28;20321;-78
2023/01/30 01:27:34;;;;;;;19.17;15.73;;;1.40;69.00;;;;;;6249458;28;20235;-80
2023/01/30 01:30:38;;;;;;;18.47;15.93;;;1.40;69.10;;;;;;6244856;28;20658;-78
2023/01/30 01:33:41;;;;;;;18.33;16.03;;;1.30;69.10;;;;;;6267127;28;20244;-80
2023/01/30 01:36:48;;;;;;;16.50;13.97;;;1.30;69.20;;;;;;6268396;28;20309;-80
2023/01/30 01:43:17;;;;;;;18.10;15.87;;;1.30;69.20;;;;;;6298053;28;20297;-78
2023/01/30 01:46:24;;;;;;;20.77;16.63;;;1.40;68.90;;;;;;6301280;28;20272;-76
2023/01/30 01:49:30;;;;;;;18.60;16.03;;;1.40;68.90;;;;;;6279066;28;20226;-79
2023/01/30 01:52:35;;;;;;;18.03;16.13;;;1.20;69.30;;;;;;6251996;28;20241;-78
2023/01/30 01:55:40;;;;;;;19.13;16.03;;;1.20;69.20;;;;;;6239495;28;20238;-80
2023/01/30 01:58:48;;;;;;;20.70;16.13;;;1.20;69.20;;;;;;6265053;28;20237;-79
2023/01/30 02:01:54;;;;;;;20.07;16.03;;;1.20;69.30;;;;;;6263612;28;20238;-80
2023/01/30 02:05:02;;;;;;;20.63;17.20;;;1.20;69.40;;;;;;6288363;28;20847;-78
2023/01/30 02:08:10;;;;;;;21.23;17.50;;;1.20;69.80;;;;;;6274546;28;20242;-79
2023/01/30 02:11:21;;;;;;;20.80;14.80;;;1.20;70.30;;;;;;6248606;28;20238;-78
2023/01/30 02:14:25;;;;;;;19.30;16.13;;;1.20;70.60;;;;;;6239598;28;20265;-79
2023/01/30 02:17:28;;;;;;;19.33;16.23;;;1.10;71.30;;;;;;6228883;28;20750;-81
2023/01/30 02:20:40;;;;;;;21.63;16.67;;;1.00;71.90;;;;;;6255676;28;20517;-78
2023/01/30 02:24:09;;;;;;;21.43;17.10;;;1.00;72.40;;;;;;6250891;28;20238;-80
2023/01/30 02:27:31;;;;;;;21.40;17.37;;;1.00;72.70;;;;;;6262283;28;20747;-78
2023/01/30 02:31:06;;;;;;;22.80;18.30;;;1.00;73.00;;;;;;6262861;28;20625;-79
2023/01/30 02:34:23;;;;;;;22.20;16.63;;;1.10;72.90;;;;;;6263440;28;20248;-80
2023/01/30 02:37:42;;;;;;;24.03;18.00;;;1.10;72.80;;;;;;6261813;28;20226;-79
2023/01/30 02:40:55;;;;;;;21.30;17.63;;;1.10;73.00;;;;;;6262484;28;20698;-78
2023/01/30 02:44:04;;;;;;;21.27;17.20;;;1.10;72.90;;;;;;6263273;28;20230;-79
2023/01/30 02:51:01;;;;;;;21.67;18.43;;;1.10;73.20;;;;;;6242689;28;20262;-80
2023/01/30 02:54:07;;;;;;;23.40;19.50;;;1.10;74.20;;;;;;6235978;28;20250;-80
2023/01/30 02:57:20;;;;;;;25.83;18.80;;;1.00;75.10;;;;;;6258126;28;20728;-80
2023/01/30 03:00:31;;;;;;;25.03;18.77;;;1.00;75.90;;;;;;6263562;28;20702;-80
2023/01/30 03:04:09;;;;;;;26.03;19.40;;;0.90;76.10;;;;;;6262815;28;20714;-81
2023/01/30 03:07:24;;;;;;;27.50;18.63;;;0.90;76.30;;;;;;6247574;28;20275;-78
2023/01/30 03:10:35;;;;;;;26.37;18.87;;;0.80;76.50;;;;;;6262317;28;20248;-78
2023/01/30 03:13:47;;;;;;;27.97;20.13;;;0.90;76.50;;;;;;6249079;28;20249;-79
2023/01/30 03:16:54;;;;;;;23.77;18.70;;;0.90;76.30;;;;;;6226108;28;20753;-80
2023/01/30 03:19:59;;;;;;;24.87;18.80;;;1.00;75.80;;;;;;6253552;28;20234;-79
2023/01/30 03:23:02;;;;;;;27.20;19.53;;;1.00;75.70;;;;;;6258535;28;20253;-79
2023/01/30 03:26:09;;;;;;;26.77;20.23;;;1.00;75.90;;;;;;6265584;28;20238;-79
2023/01/30 03:29:12;;;;;;;25.57;19.30;;;1.00;75.90;;;;;;6264309;28;20249;-78
2023/01/30 03:32:15;;;;;;;25.67;18.83;;;1.10;75.80;;;;;;6264181;28;20238;-79
2023/01/30 03:35:20;;;;;;;26.27;19.17;;;1.10;75.70;;;;;;6262892;28;20233;-78
2023/01/30 03:38:24;;;;;;;28.20;19.73;;;1.10;75.50;;;;;;6255930;28;20238;-79
2023/01/30 03:41:30;;;;;;;24.73;18.63;;;1.10;75.30;;;;;;6274920;28;20245;-79
2023/01/30 03:44:33;;;;;;;20.37;17.17;;;1.10;75.20;;;;;;6263086;28;20764;-78
2023/01/30 03:47:36;;;;;;;23.30;18.83;;;1.20;75.30;;;;;;6263296;28;20241;-78
2023/01/30 03:50:41;;;;;;;24.23;18.50;;;1.20;75.00;;;;;;6262266;28;20249;-79
2023/01/30 03:53:44;;;;;;;24.83;17.97;;;1.30;75.40;;;;;;6243192;28;20341;-79
2023/01/30 03:56:47;;;;;;;24.17;18.17;;;1.30;75.50;;;;;;6237288;28;20652;-77
2023/01/30 03:59:50;;;;;;;22.47;18.17;;;1.20;75.90;;;;;;6239126;28;20241;-78
2023/01/30 04:02:55;;;;;;;24.43;18.67;;;1.20;76.20;;;;;;6249262;28;20237;-78
2023/01/30 04:06:00;;;;;;;26.10;19.37;;;1.30;76.10;;;;;;6262089;28;20230;-78
2023/01/30 04:09:03;;;;;;;26.67;19.40;;;1.30;76.00;;;;;;6262163;28;20257;-79
2023/01/30 04:12:07;;;;;;;25.83;19.43;;;1.30;76.10;;;;;;6261793;28;20241;-79
2023/01/30 04:15:11;;;;;;;25.27;17.83;;;1.30;76.40;;;;;;6262995;28;20242;-80
2023/01/30 04:18:15;;;;;;;25.30;18.57;;;1.40;76.10;;;;;;6239922;28;20791;-78
2023/01/30 04:21:20;;;;;;;23.53;18.20;;;1.40;75.90;;;;;;6270458;28;20265;-79
2023/01/30 04:24:23;;;;;;;23.90;18.53;;;1.50;75.60;;;;;;6261637;28;20245;-79
2023/01/30 04:27:26;;;;;;;23.67;17.37;;;1.50;75.50;;;;;;6260775;28;20256;-78
2023/01/30 04:30:29;;;;;;;24.00;17.80;;;1.60;75.20;;;;;;6261029;28;20307;-79
2023/01/30 04:33:34;;;;;;;22.87;17.90;;;1.60;75.20;;;;;;6260848;28;20249;-78
2023/01/30 04:36:38;;;;;;;21.40;17.33;;;1.60;75.10;;;;;;6262458;28;20603;-77
2023/01/30 04:39:41;;;;;;;20.37;18.10;;;1.70;74.80;;;;;;6261792;28;20245;-77
2023/01/30 04:42:44;;;;;;;22.97;16.40;;;1.70;74.80;;;;;;6264944;28;20252;-78
2023/01/30 04:45:51;;;;;;;25.30;18.63;;;1.80;74.70;;;;;;6261704;28;20237;-78
2023/01/30 04:48:54;;;;;;;25.53;17.63;;;1.80;74.70;;;;;;6260510;28;20536;-77
2023/01/30 04:51:59;;;;;;;20.73;16.97;;;1.90;74.50;;;;;;6261318;28;20244;-79
2023/01/30 04:55:02;;;;;;;22.43;17.53;;;1.90;74.70;;;;;;6259445;28;20618;-78
2023/01/30 04:58:05;;;;;;;20.50;16.30;;;1.90;75.00;;;;;;6266031;28;20238;-81
2023/01/30 05:01:16;;;;;;;22.47;18.00;;;1.90;75.00;;;;;;6256823;28;20256;-81
2023/01/30 05:04:19;;;;;;;21.47;17.73;;;1.90;75.00;;;;;;6266342;28;20323;-81
2023/01/30 05:07:24;;;;;;;27.30;21.07;;;1.90;75.40;;;;;;6255532;28;20245;-80
2023/01/30 05:10:27;;;;;;;28.73;23.07;;;1.90;75.70;;;;;;6256815;28;20246;-78
2023/01/30 05:13:30;;;;;;;33.20;24.67;;;1.90;76.10;;;;;;6259856;28;20245;-79
2023/01/30 05:16:34;;;;;;;31.17;25.50;;;1.90;76.40;;;;;;6258278;28;20241;-80
2023/01/30 05:19:37;;;;;;;34.37;24.67;;;1.80;76.90;;;;;;6260504;28;20228;-79
2023/01/30 05:22:42;;;;;;;30.67;23.43;;;1.70;77.30;;;;;;6265177;28;20246;-80
2023/01/30 05:25:45;;;;;;;29.63;22.13;;;1.60;77.80;;;;;;6246233;28;20303;-79
2023/01/30 05:28:54;;;;;;;32.40;22.43;;;1.60;78.40;;;;;;6261468;28;20230;-79
2023/01/30 05:31:58;;;;;;;29.03;20.57;;;1.50;78.60;;;;;;6252580;28;20252;-79
2023/01/30 05:35:01;;;;;;;27.57;19.53;;;1.60;78.60;;;;;;6260103;28;20245;-79
2023/01/30 05:38:06;;;;;;;26.47;19.10;;;1.60;78.80;;;;;;6268037;28;20245;-79
2023/01/30 05:41:10;;;;;;;27.97;18.63;;;1.60;78.90;;;;;;6259852;28;20245;-78
2023/01/30 05:44:14;;;;;;;27.27;19.57;;;1.60;78.70;;;;;;6254916;28;20291;-79
2023/01/30 05:47:17;;;;;;;24.67;18.77;;;1.70;78.70;;;;;;6259469;28;20959;-80
2023/01/30 05:50:20;;;;;;;27.30;19.60;;;1.70;78.60;;;;;;6259837;28;20238;-81
2023/01/30 05:53:28;;;;;;;22.57;19.13;;;1.70;78.80;;;;;;6259475;28;20261;-78
2023/01/30 05:56:32;;;;;;;24.80;19.20;;;1.70;79.00;;;;;;6267140;28;20238;-76
2023/01/30 05:59:35;;;;;;;24.60;18.27;;;1.70;78.90;;;;;;6268230;28;21019;-80
2023/01/30 06:02:38;;;;;;;26.73;19.50;;;1.70;78.80;;;;;;6263896;28;20246;-80
2023/01/30 06:05:42;;;;;;;28.53;21.33;;;1.60;79.10;;;;;;6265267;28;20234;-78
2023/01/30 06:08:46;;;;;;;28.17;19.77;;;1.60;79.40;;;;;;6263405;28;20234;-81
2023/01/30 06:11:51;;;;;;;25.73;19.37;;;1.60;79.70;;;;;;6264764;28;20664;-78
2023/01/30 06:14:55;;;;;;;25.33;19.40;;;1.60;79.80;;;;;;6271310;28;20321;-78
2023/01/30 06:17:58;;;;;;;24.83;18.73;;;1.70;79.80;;;;;;6253750;28;20360;-79
2023/01/30 06:21:01;;;;;;;26.93;19.17;;;1.70;79.70;;;;;;6264147;28;20238;-77
2023/01/30 06:24:06;;;;;;;26.17;18.90;;;1.70;79.80;;;;;;6262649;28;20241;-81
2023/01/30 06:27:10;;;;;;;27.03;20.47;;;1.80;79.80;;;;;;6264115;28;20245;-78
2023/01/30 06:30:13;;;;;;;25.27;20.07;;;1.80;79.80;;;;;;6263079;28;21000;-77
2023/01/30 06:33:17;;;;;;;26.30;19.60;;;1.90;79.80;;;;;;6259633;28;20245;-80
2023/01/30 06:36:20;;;;;;;25.30;19.10;;;1.90;79.80;;;;;;6251495;28;20313;-77
2023/01/30 06:39:24;;;;;;;27.20;19.23;;;2.00;79.80;;;;;;6268307;28;20662;-78
2023/01/30 06:42:27;;;;;;;25.93;19.20;;;2.10;79.80;;;;;;6264316;28;20234;-77
2023/01/30 06:45:30;;;;;;;24.63;19.40;;;2.10;79.70;;;;;;6268240;28;20248;-78
2023/01/30 06:48:33;;;;;;;24.77;18.83;;;2.10;79.70;;;;;;6265917;28;20726;-78
2023/01/30 06:51:36;;;;;;;25.57;18.80;;;2.10;79.70;;;;;;6266361;28;20244;-77
2023/01/30 06:54:41;;;;;;;20.43;17.43;;;2.20;79.60;;;;;;6263654;28;20240;-81
2023/01/30 06:57:45;;;;;;;22.63;18.00;;;2.30;79.60;;;;;;6268073;28;20237;-78
2023/01/30 07:00:48;;;;;;;24.67;17.57;;;2.40;79.40;;;;;;6262898;28;20227;-78
2023/01/30 07:03:51;;;;;;;21.93;17.47;;;2.40;79.40;;;;;;6258461;28;20356;-75
2023/01/30 07:06:54;;;;;;;24.07;16.93;;;2.40;79.50;;;;;;6261717;28;20240;-80
2023/01/30 07:09:59;;;;;;;24.50;17.43;;;2.50;79.50;;;;;;6254066;28;20357;-77
2023/01/30 07:13:10;;;;;;;20.10;16.30;;;2.50;79.50;;;;;;6258403;28;20604;-76
2023/01/30 07:16:13;;;;;;;20.47;14.67;;;2.60;79.60;;;;;;6262514;28;20802;-80
2023/01/30 07:19:16;;;;;;;17.27;15.10;;;2.70;79.70;;;;;;6261220;28;20245;-79
2023/01/30 07:22:19;;;;;;;19.23;14.87;;;2.80;79.70;;;;;;6258628;28;20237;-78
2023/01/30 07:25:26;;;;;;;17.70;15.13;;;2.80;79.70;;;;;;6269121;28;20230;-78
2023/01/30 07:28:29;;;;;;;16.93;15.20;;;2.90;80.00;;;;;;6260919;28;20257;-78
2023/01/30 07:31:32;;;;;;;15.40;13.90;;;2.90;79.90;;;;;;6263241;28;20561;-80
2023/01/30 07:34:35;;;;;;;15.10;13.50;;;3.00;80.00;;;;;;6262973;28;20233;-79
2023/01/30 07:37:38;;;;;;;14.03;12.57;;;3.00;80.00;;;;;;6265706;28;20237;-81
2023/01/30 07:40:42;;;;;;;14.50;12.93;;;3.10;79.90;;;;;;6256998;28;20234;-80
2023/01/30 07:43:45;;;;;;;14.07;12.67;;;3.10;79.90;;;;;;6263034;28;20396;-79
2023/01/30 07:46:48;;;;;;;14.03;12.73;;;3.30;79.70;;;;;;6270182;28;20233;-81
2023/01/30 07:49:51;;;;;;;12.93;11.80;;;3.30;79.80;;;;;;6276878;28;20268;-80
2023/01/30 07:52:54;;;;;;;13.00;11.63;;;3.30;79.90;;;;;;6265359;28;20384;-80
2023/01/30 07:56:05;;;;;;;12.70;11.23;;;3.40;80.00;;;;;;6276888;28;20246;-79
2023/01/30 07:59:10;;;;;;;11.17;10.13;;;3.50;79.90;;;;;;6270360;28;20325;-79
2023/01/30 08:02:13;;;;;;;11.60;10.57;;;3.50;79.80;;;;;;6276632;28;20228;-75
2023/01/30 08:05:17;;;;;;;11.10;10.07;;;3.60;79.70;;;;;;6298449;28;20226;-80
2023/01/30 08:08:20;;;;;;;10.07;9.27;;;3.60;79.70;;;;;;6294514;28;20656;-76
2023/01/30 08:11:24;;;;;;;10.23;9.50;;;3.70;79.60;;;;;;6294689;28;20395;-77
2023/01/30 08:14:28;;;;;;;10.90;9.80;;;3.70;79.40;;;;;;6294254;28;20293;-76
2023/01/30 08:17:33;;;;;;;10.30;9.40;;;3.70;79.50;;;;;;6291557;28;20268;-78
2023/01/30 08:20:37;;;;;;;9.83;9.00;;;3.80;79.50;;;;;;6265307;28;20376;-78
2023/01/30 08:23:40;;;;;;;11.93;10.83;;;3.90;79.60;;;;;;6262799;28;20236;-80
2023/01/30 08:26:44;;;;;;;11.77;10.67;;;3.90;79.70;;;;;;6263721;28;20233;-81
2023/01/30 08:29:47;;;;;;;9.93;9.10;;;3.90;79.90;;;;;;6261917;28;20233;-80
2023/01/30 08:32:50;;;;;;;9.07;8.47;;;3.90;79.80;;;;;;6274608;28;20315;-80
2023/01/30 08:35:56;;;;;;;8.90;8.30;;;4.00;79.40;;;;;;6252881;28;20249;-83
2023/01/30 08:39:02;;;;;;;8.77;8.10;;;4.00;79.60;;;;;;6263318;28;20251;-76
2023/01/30 08:42:06;;;;;;;8.50;7.90;;;4.10;79.40;;;;;;6291398;28;20294;-75
2023/01/30 08:45:10;;;;;;;8.80;8.10;;;4.10;79.20;;;;;;6299247;28;20285;-77
2023/01/30 08:48:13;;;;;;;8.53;7.87;;;4.10;79.20;;;;;;6293697;28;20291;-75
2023/01/30 08:51:16;;;;;;;9.20;8.53;;;4.10;79.00;;;;;;6295524;28;20293;-79
2023/01/30 08:54:19;;;;;;;7.90;7.43;;;4.10;78.90;;;;;;6293287;28;20302;-79
2023/01/30 08:57:23;;;;;;;8.73;7.97;;;4.20;78.70;;;;;;6260479;28;20221;-82
2023/01/30 09:00:27;;;;;;;10.37;7.73;;;4.10;78.50;;;;;;6264149;28;20290;-79
2023/01/30 09:03:30;;;;;;;7.30;6.80;;;4.20;78.50;;;;;;6271115;28;20252;-78
2023/01/30 09:06:33;;;;;;;6.80;6.30;;;4.30;78.30;;;;;;6262146;28;20240;-81
2023/01/30 09:09:37;;;;;;;7.70;7.07;;;4.30;78.10;;;;;;6264899;28;20240;-80
2023/01/30 09:12:41;;;;;;;8.80;8.03;;;4.40;77.90;;;;;;6258695;28;20335;-81
2023/01/30 09:15:45;;;;;;;6.33;6.03;;;4.40;77.80;;;;;;6263007;28;20242;-81
2023/01/30 09:18:48;;;;;;;7.10;6.47;;;4.40;77.70;;;;;;6269019;28;20295;-77
2023/01/30 09:21:52;;;;;;;6.77;6.33;;;4.50;77.70;;;;;;6267893;28;20241;-82
2023/01/30 09:24:55;;;;;;;6.43;6.03;;;4.40;77.70;;;;;;6263117;28;20236;-81
2023/01/30 09:27:59;;;;;;;6.60;6.10;;;4.40;77.90;;;;;;6268766;28;20233;-81
2023/01/30 09:31:03;;;;;;;6.47;5.87;;;4.50;77.50;;;;;;6266567;28;20233;-83
2023/01/30 09:34:06;;;;;;;5.87;5.33;;;4.50;77.30;;;;;;6275114;28;20242;-77
2023/01/30 09:37:09;;;;;;;6.47;6.07;;;4.50;77.10;;;;;;6289151;28;20250;-75
2023/01/30 09:40:15;;;;;;;7.37;5.90;;;4.50;77.20;;;;;;6285686;28;20480;-77
2023/01/30 09:43:31;;;;;;;5.53;5.13;;;4.50;77.40;;;;;;6285733;28;20237;-76
2023/01/30 09:46:46;;;;;;;5.70;5.23;;;4.70;77.10;;;;;;6278816;28;20633;-79
2023/01/30 09:49:58;;;;;;;5.60;5.10;;;4.70;77.00;;;;;;6275047;28;20321;-78
2023/01/30 09:53:06;;;;;;;5.23;4.70;;;4.70;76.80;;;;;;6278679;28;20234;-81
2023/01/30 09:56:09;;;;;;;5.87;5.10;;;4.70;76.80;;;;;;6286281;28;20243;-79
2023/01/30 09:59:24;;;;;;;4.47;4.17;;;4.90;77.00;;;;;;6278735;28;20230;-82
2023/01/30 10:02:36;;;;;;;4.97;4.60;;;5.00;76.60;;;;;;6275654;28;20249;-78
2023/01/30 10:05:44;;;;;;;4.90;4.60;;;5.00;76.20;;;;;;6268610;28;20233;-78
2023/01/30 10:08:55;;;;;;;4.93;4.47;;;5.10;76.00;;;;;;6274982;28;20233;-81
2023/01/30 10:12:15;;;;;;;6.83;4.57;;;5.10;75.40;;;;;;6273155;28;20349;-82
2023/01/30 10:15:44;;;;;;;5.10;4.17;;;5.10;75.20;;;;;;6275296;28;20237;-82
2023/01/30 10:19:00;;;;;;;4.80;4.40;;;5.20;74.70;;;;;;6263636;28;20230;-79
2023/01/30 10:22:16;;;;;;;5.20;3.97;;;5.30;74.00;;;;;;6269432;28;20279;-78
2023/01/30 10:25:29;;;;;;;7.27;4.20;;;5.50;73.80;;;;;;6273491;28;20888;-80
2023/01/30 10:28:36;;;;;;;6.70;4.57;;;5.60;73.00;;;;;;6279343;28;20226;-80
2023/01/30 10:31:46;;;;;;;7.97;4.17;;;5.70;72.50;;;;;;6270383;28;20842;-83
2023/01/30 10:34:55;;;;;;;8.87;4.50;;;5.70;72.20;;;;;;6272206;28;20773;-78
2023/01/30 10:38:05;;;;;;;9.70;4.33;;;5.70;71.30;;;;;;6255090;28;20226;-78
2023/01/30 10:41:16;;;;;;;11.43;4.93;;;5.80;70.80;;;;;;6261714;28;20264;-81
2023/01/30 10:44:22;;;;;;;8.93;4.40;;;5.80;70.50;;;;;;6265566;28;20734;-81
2023/01/30 10:47:41;;;;;;;13.93;5.03;;;5.80;69.80;;;;;;6269048;28;20233;-81
2023/01/30 10:50:54;;;;;;;9.53;5.00;;;5.70;69.60;;;;;;6267942;28;20229;-81
2023/01/30 10:54:02;;;;;;;11.77;5.13;;;5.70;69.50;;;;;;6271094;28;20234;-79
2023/01/30 10:57:18;;;;;;;10.20;5.20;;;5.70;68.80;;;;;;6265003;28;20242;-76
2023/01/30 11:00:28;;;;;;;9.67;4.63;;;5.60;69.10;;;;;;6263443;28;20307;-81
2023/01/30 11:03:41;;;;;;;9.53;4.40;;;5.60;68.70;;;;;;6270966;28;20238;-80
2023/01/30 11:06:46;;;;;;;17.57;5.33;;;5.60;68.60;;;;;;6255421;28;20885;-79
2023/01/30 11:09:50;;;;;;;10.40;5.10;;;5.60;68.60;;;;;;6265335;28;20257;-81
2023/01/30 11:12:55;;;;;;;12.80;5.07;;;5.60;68.20;;;;;;6268631;28;20321;-82
2023/01/30 11:16:02;;;;;;;6.50;4.63;;;5.60;68.20;;;;;;6260582;28;20229;-81
2023/01/30 11:19:07;;;;;;;5.77;4.90;;;5.60;68.40;;;;;;6269361;28;20321;-81
2023/01/30 11:22:26;;;;;;;11.17;4.80;;;5.60;68.40;;;;;;6264249;28;20886;-81
2023/01/30 11:25:30;;;;;;;11.57;4.80;;;5.60;68.70;;;;;;6263599;28;20243;-82
2023/01/30 11:28:41;;;;;;;9.53;4.87;;;5.70;68.60;;;;;;6261723;28;20237;-82
2023/01/30 11:31:50;;;;;;;10.67;4.77;;;5.70;68.50;;;;;;6251067;28;20333;-80
2023/01/30 11:35:16;;;;;;;14.90;5.20;;;5.80;68.30;;;;;;6264553;28;20245;-82
2023/01/30 11:38:23;;;;;;;12.87;4.73;;;5.90;67.80;;;;;;6265031;28;20230;-81
2023/01/30 11:41:26;;;;;;;10.10;5.50;;;5.90;67.80;;;;;;6260996;28;20338;-78
2023/01/30 11:44:31;;;;;;;14.30;5.10;;;5.90;67.80;;;;;;6259993;28;20237;-81
2023/01/30 11:47:35;;;;;;;10.47;5.10;;;5.90;67.70;;;;;;6254450;28;20241;-79
2023/01/30 11:50:43;;;;;;;11.20;5.00;;;5.80;67.60;;;;;;6254269;28;20233;-81
2023/01/30 11:53:56;;;;;;;11.77;5.10;;;5.70;68.40;;;;;;6259664;28;20279;-79
2023/01/30 11:57:01;;;;;;;10.57;4.57;;;5.70;68.90;;;;;;6257019;28;20231;-79
2023/01/30 12:00:08;;;;;;;9.40;4.40;;;5.60;69.10;;;;;;6269512;28;20234;-82
2023/01/30 12:03:14;;;;;;;11.03;4.20;;;5.50;70.10;;;;;;6270349;28;20639;-81
2023/01/30 12:06:30;;;;;;;10.67;4.47;;;5.50;70.40;;;;;;6265629;28;20261;-78
2023/01/30 12:09:35;;;;;;;5.77;4.43;;;5.30;71.30;;;;;;6253755;28;20268;-78
2023/01/30 12:12:47;;;;;;;6.33;4.03;;;5.10;72.40;;;;;;6261157;28;20226;-81
2023/01/30 12:15:56;;;;;;;6.00;4.43;;;4.80;73.70;;;;;;6245863;28;20248;-80
2023/01/30 12:19:06;;;;;;;8.20;4.70;;;4.70;74.10;;;;;;6261479;28;20234;-78
2023/01/30 12:22:21;;;;;;;7.03;3.83;;;4.50;74.30;;;;;;6264037;28;20265;-79
2023/01/30 12:25:27;;;;;;;8.00;4.20;;;4.40;74.60;;;;;;6261883;28;20269;-80
2023/01/30 12:28:38;;;;;;;10.53;5.23;;;4.40;74.70;;;;;;6268117;28;20306;-81
2023/01/30 12:31:46;;;;;;;13.40;5.97;;;4.70;74.80;;;;;;6257023;28;20234;-81
2023/01/30 12:34:50;;;;;;;9.67;5.20;;;4.90;74.40;;;;;;6266146;28;20252;-83
2023/01/30 12:38:04;;;;;;;10.73;4.03;;;5.10;73.80;;;;;;6263173;28;20237;-81
2023/01/30 12:41:20;;;;;;;14.47;5.43;;;5.40;72.90;;;;;;6263016;28;20310;-80
2023/01/30 12:44:37;;;;;;;17.47;5.30;;;5.50;72.10;;;;;;6262491;28;20330;-79
2023/01/30 12:48:04;;;;;;;15.43;5.10;;;5.50;71.40;;;;;;6252811;28;20726;-79
2023/01/30 12:51:17;;;;;;;8.80;5.30;;;5.70;69.60;;;;;;6257415;28;20321;-80
2023/01/30 12:54:39;;;;;;;11.33;4.73;;;6.00;68.90;;;;;;6256160;28;20246;-80
2023/01/30 12:57:47;;;;;;;6.97;4.57;;;6.00;68.60;;;;;;6253280;28;20245;-80
2023/01/30 13:01:06;;;;;;;11.07;4.50;;;6.10;68.80;;;;;;6263604;28;20276;-82
2023/01/30 13:04:18;;;;;;;7.50;4.47;;;6.30;68.50;;;;;;6268741;28;20238;-81
2023/01/30 13:07:28;;;;;;;12.83;4.77;;;6.20;68.40;;;;;;6265803;28;20244;-82
2023/01/30 13:10:39;;;;;;;8.60;4.80;;;6.10;68.00;;;;;;6266452;28;20234;-80
2023/01/30 13:13:52;;;;;;;4.80;4.37;;;6.10;67.20;;;;;;6266489;28;20238;-80
2023/01/30 13:17:20;;;;;;;13.93;4.73;;;6.00;67.60;;;;;;6274186;28;20683;-78
2023/01/30 13:20:49;;;;;;;10.00;4.87;;;5.90;67.20;;;;;;6270923;28;21542;-81
2023/01/30 13:24:05;;;;;;;13.27;4.57;;;5.80;67.00;;;;;;6267145;28;20257;-80
2023/01/30 13:27:16;;;;;;;9.80;4.33;;;5.90;66.40;;;;;;6263832;28;20230;-81
2023/01/30 13:30:19;;;;;;;7.33;3.90;;;5.80;65.80;;;;;;6263642;28;20739;-81
2023/01/30 13:33:28;;;;;;;10.03;4.53;;;5.90;65.70;;;;;;6266083;28;20246;-78
2023/01/30 13:36:39;;;;;;;8.27;4.03;;;6.00;65.20;;;;;;6266412;28;20243;-76
2023/01/30 13:39:47;;;;;;;7.27;4.13;;;6.00;65.00;;;;;;6261644;28;20238;-76
2023/01/30 13:42:56;;;;;;;4.83;4.23;;;6.00;65.30;;;;;;6263647;28;20242;-79
2023/01/30 13:46:04;;;;;;;9.00;5.00;;;6.00;65.30;;;;;;6266412;28;20315;-81
2023/01/30 13:49:19;;;;;;;13.67;4.63;;;5.90;66.70;;;;;;6262511;28;20502;-79
2023/01/30 13:52:27;;;;;;;8.10;4.60;;;5.80;67.60;;;;;;6262800;28;20253;-80
2023/01/30 13:55:40;;;;;;;9.87;4.77;;;5.60;69.60;;;;;;6263877;28;20877;-82
2023/01/30 13:58:50;;;;;;;10.30;4.47;;;5.40;70.20;;;;;;6261681;28;20263;-80
2023/01/30 14:02:18;;;;;;;10.63;4.23;;;5.10;71.50;;;;;;6266180;28;20321;-78
2023/01/30 14:06:09;;;;;;;4.80;4.40;;;5.00;72.70;;;;;;6234085;28;20234;-78
2023/01/30 14:09:23;;;;;;;8.27;4.10;;;4.90;73.40;;;;;;6271441;28;20623;-79
2023/01/30 14:12:32;;;;;;;9.60;4.33;;;4.80;74.00;;;;;;6256536;28;20772;-79
2023/01/30 14:15:41;;;;;;;4.80;3.77;;;4.60;74.50;;;;;;6266707;28;20256;-77
2023/01/30 14:18:44;;;;;;;3.80;3.50;;;4.40;74.40;;;;;;6268197;28;20238;-79
2023/01/30 14:21:57;;;;;;;5.77;3.73;;;4.20;75.00;;;;;;6264593;28;20238;-78
2023/01/30 14:25:43;;;;;;;5.40;4.27;;;4.10;75.40;;;;;;6273022;28;20323;-80
2023/01/30 14:28:48;;;;;;;9.03;4.37;;;3.90;76.20;;;;;;6265175;28;20337;-79
2023/01/30 14:31:53;;;;;;;5.30;4.07;;;4.00;76.20;;;;;;6265400;28;20245;-80
2023/01/30 14:35:25;;;;;;;7.53;4.33;;;4.00;76.40;;;;;;6268093;28;20325;-77
2023/01/30 14:38:30;;;;;;;6.63;4.17;;;4.10;76.60;;;;;;6269570;28;20268;-79
2023/01/30 14:41:33;;;;;;;3.87;3.57;;;4.20;76.50;;;;;;6278392;28;20253;-81
2023/01/30 14:45:01;;;;;;;3.50;3.27;;;4.20;75.70;;;;;;6278477;28;21674;-81
2023/01/30 14:48:29;;;;;;;3.37;3.17;;;4.30;75.70;;;;;;6261624;28;20226;-75
2023/01/30 14:51:36;;;;;;;3.73;3.53;;;4.30;75.50;;;;;;6263891;28;20248;-76
2023/01/30 14:54:49;;;;;;;3.40;3.10;;;4.30;75.20;;;;;;6257181;28;20245;-81
2023/01/30 14:57:55;;;;;;;3.47;3.17;;;4.20;75.00;;;;;;6262449;28;20237;-81
2023/01/30 15:00:59;;;;;;;3.07;2.80;;;4.20;74.90;;;;;;6265640;28;20230;-80
2023/01/30 15:04:04;;;;;;;3.23;3.13;;;4.10;74.90;;;;;;6268051;28;20242;-81
2023/01/30 15:07:11;;;;;;;3.50;3.20;;;4.10;75.40;;;;;;6269468;28;20315;-81
2023/01/30 15:10:25;;;;;;;3.57;3.27;;;4.00;75.50;;;;;;6269566;28;20230;-80
2023/01/30 15:13:41;;;;;;;3.60;3.33;;;3.90;75.50;;;;;;6277281;28;20841;-81
2023/01/30 15:17:09;;;;;;;3.60;3.40;;;4.00;75.30;;;;;;6266517;28;20238;-81
2023/01/30 15:20:31;;;;;;;5.10;3.47;;;4.00;75.00;;;;;;6267292;28;20645;-81
2023/01/30 15:23:58;;;;;;;4.23;3.60;;;4.00;74.90;;;;;;6277486;28;20260;-80
2023/01/30 15:27:12;;;;;;;5.70;3.60;;;4.00;74.80;;;;;;6264314;28;20237;-81
2023/01/30 15:30:22;;;;;;;4.63;3.50;;;4.00;75.00;;;;;;6271784;28;20802;-81
2023/01/30 15:33:27;;;;;;;3.63;3.43;;;4.00;75.00;;;;;;6270341;28;20249;-81
2023/01/30 15:36:35;;;;;;;5.17;3.47;;;4.00;75.20;;;;;;6272697;28;20852;-81
2023/01/30 15:39:39;;;;;;;7.53;3.97;;;3.90;75.50;;;;;;6252275;28;20302;-80
2023/01/30 15:42:45;;;;;;;5.10;4.30;;;4.00;75.30;;;;;;6259384;28;20750;-81
2023/01/30 15:46:06;;;;;;;3.70;3.60;;;4.00;75.30;;;;;;6267104;28;20236;-80
2023/01/30 15:49:39;;;;;;;9.40;5.00;;;4.00;75.30;;;;;;6263515;28;20249;-78
2023/01/30 15:52:47;;;;;;;6.10;4.10;;;4.00;75.40;;;;;;6264808;28;20245;-80
2023/01/30 15:55:51;;;;;;;7.57;4.13;;;4.00;75.50;;;;;;6268433;28;20702;-78
2023/01/30 15:58:58;;;;;;;5.23;4.30;;;4.10;75.40;;;;;;6265517;28;20321;-81
2023/01/30 16:02:05;;;;;;;7.33;4.07;;;4.00;75.10;;;;;;6263458;28;21018;-79
2023/01/30 16:05:16;;;;;;;5.07;4.30;;;4.00;75.00;;;;;;6267331;28;20252;-81
2023/01/30 16:08:22;;;;;;;5.47;3.77;;;4.00;74.60;;;;;;6270446;28;20249;-83
2023/01/30 16:11:37;;;;;;;7.87;4.23;;;4.00;73.60;;;;;;6287257;28;20229;-76
2023/01/30 16:14:41;;;;;;;8.70;4.33;;;4.00;73.60;;;;;;6291471;28;20221;-77
2023/01/30 16:17:51;;;;;;;5.20;4.57;;;4.00;73.90;;;;;;6304195;28;20242;-76
2023/01/30 16:20:57;;;;;;;9.43;5.20;;;4.10;74.00;;;;;;6296521;28;20217;-76
2023/01/30 16:24:06;;;;;;;5.70;4.50;;;4.10;74.00;;;;;;6294547;28;20258;-74
2023/01/30 16:27:19;;;;;;;6.83;4.50;;;4.10;74.30;;;;;;6288764;28;20297;-80